Time;durP1;ratioP1;P1;durP2;ratioP2;P2;SDS_P1;SDS_P2;PMS_P1;PMS_P2;Temp;Humidity;BMP_temperature;BMP_pressure;BME280_temperature;BME280_humidity;BME280_pressure;Samples;Min_cycle;Max_cycle;Signal;HPM_P1;HPM_P2
2022/07/10 00:00:53;;;;;;;0.90;0.85;;;;;;;21.38;46.22;99852.06;4485619;32;33236;-72
2022/07/10 00:03:21;;;;;;;1.05;0.75;;;;;;;21.18;46.71;99857.03;4483808;32;34149;-72
2022/07/10 00:05:49;;;;;;;0.70;0.70;;;;;;;20.92;47.60;99848.59;4484569;32;34201;-72
2022/07/10 00:08:16;;;;;;;0.60;0.60;;;;;;;21.24;46.89;99847.47;4484165;32;33015;-72
2022/07/10 00:10:44;;;;;;;0.70;0.65;;;;;;;20.74;48.52;99844.12;4485551;32;33155;-72
2022/07/10 00:13:11;;;;;;;0.70;0.70;;;;;;;20.63;48.93;99844.38;4483989;32;33955;-72
2022/07/10 00:15:39;;;;;;;1.40;1.00;;;;;;;20.72;49.03;99847.19;4484289;32;33400;-72
2022/07/10 00:18:07;;;;;;;0.80;0.80;;;;;;;19.74;52.06;99837.59;4485173;32;33886;-71
2022/07/10 00:20:35;;;;;;;0.95;0.80;;;;;;;19.81;51.77;99843.47;4485200;32;33147;-71
2022/07/10 00:23:02;;;;;;;1.17;1.08;;;;;;;20.25;50.82;99841.94;4484253;32;33443;-72
2022/07/10 00:25:30;;;;;;;0.85;0.85;;;;;;;20.18;50.99;99844.31;4484095;32;34003;-72
2022/07/10 00:27:57;;;;;;;0.60;0.60;;;;;;;20.11;51.42;99848.59;4485288;32;34570;-73
2022/07/10 00:30:25;;;;;;;1.00;0.90;;;;;;;20.05;51.81;99859.75;4485464;32;33532;-72
2022/07/10 00:32:53;;;;;;;0.82;0.70;;;;;;;20.08;51.78;99850.84;4484816;32;34503;-73
2022/07/10 00:35:21;;;;;;;0.80;0.80;;;;;;;19.64;53.26;99852.31;4485380;32;34121;-73
2022/07/10 00:37:48;;;;;;;0.85;0.70;;;;;;;19.57;53.68;99854.69;4483930;32;34550;-71
2022/07/10 00:40:16;;;;;;;0.80;0.80;;;;;;;19.21;54.97;99852.62;4485280;32;33491;-72
2022/07/10 00:42:43;;;;;;;0.68;0.68;;;;;;;19.34;54.78;99853.75;4483442;32;33635;-71
2022/07/10 00:45:11;;;;;;;0.93;0.82;;;;;;;19.45;54.55;99846.13;4485130;32;35061;-84
2022/07/10 00:47:39;;;;;;;1.00;0.80;;;;;;;19.51;54.49;99849.59;4484927;32;34558;-85
2022/07/10 00:50:06;;;;;;;1.15;1.00;;;;;;;19.69;54.03;99854.16;4470446;32;33380;-82
2022/07/10 00:52:38;;;;;;;0.90;0.90;;;;;;;19.29;55.22;99848.37;4483976;32;32402;-72
2022/07/10 00:55:08;;;;;;;1.67;1.20;;;;;;;19.22;55.83;99847.94;4484845;32;35090;-71
2022/07/10 00:57:37;;;;;;;1.25;1.00;;;;;;;19.21;56.01;99846.31;4470904;32;34164;-72
2022/07/10 01:00:04;;;;;;;1.23;0.95;;;;;;;19.52;55.00;99843.75;4483836;32;34204;-71
2022/07/10 01:02:32;;;;;;;1.10;1.00;;;;;;;19.58;54.95;99845.28;4484096;32;34643;-71
2022/07/10 01:05:00;;;;;;;1.80;0.80;;;;;;;19.95;53.99;99832.44;4485012;32;34969;-83
2022/07/10 01:07:27;;;;;;;0.95;0.85;;;;;;;19.72;54.71;99834.31;4484898;32;34594;-72
2022/07/10 01:09:56;;;;;;;1.05;0.95;;;;;;;19.75;54.81;99832.87;4483500;32;34241;-72
2022/07/10 01:12:24;;;;;;;0.90;0.90;;;;;;;20.19;53.69;99834.09;4484893;32;33900;-71
2022/07/10 01:14:51;;;;;;;0.70;0.70;;;;;;;19.54;55.67;99847.03;4483331;32;34058;-75
2022/07/10 01:17:19;;;;;;;0.75;0.75;;;;;;;19.04;57.42;99847.69;4484254;32;34479;-72
2022/07/10 01:19:47;;;;;;;1.00;0.88;;;;;;;19.38;56.32;99852.03;4470645;32;33419;-71
2022/07/10 01:22:14;;;;;;;0.70;0.70;;;;;;;19.53;55.63;99844.59;4484771;32;33821;-83
2022/07/10 01:24:42;;;;;;;1.17;0.93;;;;;;;18.99;57.29;99845.06;4484518;32;34249;-77
2022/07/10 01:27:12;;;;;;;1.12;0.90;;;;;;;19.26;56.87;99849.78;4483616;32;34606;-83
2022/07/10 01:29:39;;;;;;;0.80;0.80;;;;;;;19.06;57.26;99842.72;4484531;32;34173;-73
2022/07/10 01:32:07;;;;;;;1.27;1.00;;;;;;;19.22;56.91;99845.19;4482420;32;33075;-72
2022/07/10 01:34:35;;;;;;;0.98;0.90;;;;;;;19.00;57.26;99848.63;4484483;32;35083;-84
2022/07/10 01:37:02;;;;;;;1.77;1.15;;;;;;;18.94;57.37;99849.81;4484436;32;33879;-81
2022/07/10 01:39:30;;;;;;;1.10;0.98;;;;;;;18.80;57.95;99838.78;4484187;32;33080;-73
2022/07/10 01:41:57;;;;;;;1.05;0.90;;;;;;;19.14;56.83;99838.47;4483014;32;33629;-72
2022/07/10 01:44:25;;;;;;;1.62;1.12;;;;;;;19.14;56.66;99832.16;4484389;32;34280;-80
2022/07/10 01:46:52;;;;;;;1.50;1.00;;;;;;;19.28;56.13;99821.97;4483934;32;33947;-72
2022/07/10 01:49:20;;;;;;;0.90;0.90;;;;;;;19.09;56.76;99824.78;4484012;32;34293;-73
2022/07/10 01:51:47;;;;;;;1.10;1.00;;;;;;;19.34;56.06;99814.44;4484164;32;34643;-71
2022/07/10 01:54:15;;;;;;;1.65;0.85;;;;;;;19.31;55.83;99818.63;4483849;32;34903;-72
2022/07/10 01:56:42;;;;;;;1.70;0.95;;;;;;;19.40;55.63;99816.78;4484006;32;33750;-74
2022/07/10 01:59:10;;;;;;;0.70;0.60;;;;;;;19.43;55.49;99810.66;4483992;31;33026;-80
2022/07/10 02:01:38;;;;;;;1.10;0.90;;;;;;;19.46;55.47;99810.03;4484459;32;34737;-72
2022/07/10 02:06:51;;;;;;;1.35;0.98;;;;;;;19.08;56.44;99805.88;4485545;32;33706;-79
2022/07/10 02:09:19;;;;;;;1.52;0.90;;;;;;;19.53;55.21;99804.13;4486598;32;33422;-72
2022/07/10 02:11:46;;;;;;;1.30;1.00;;;;;;;18.83;57.03;99814.28;4486318;32;34783;-76
2022/07/10 02:14:14;;;;;;;1.00;0.90;;;;;;;18.72;57.62;99814.72;4485984;32;34952;-72
2022/07/10 02:16:44;;;;;;;0.85;0.80;;;;;;;18.83;57.38;99803.28;4484926;32;34015;-81
2022/07/10 02:19:12;;;;;;;0.85;0.85;;;;;;;19.07;56.83;99805.06;4486128;32;34285;-79
2022/07/10 02:21:39;;;;;;;1.20;1.10;;;;;;;18.68;57.87;99806.25;4486164;32;33784;-80
2022/07/10 02:24:07;;;;;;;0.93;0.90;;;;;;;18.87;57.20;99806.22;4485114;32;34202;-75
2022/07/10 02:26:34;;;;;;;1.52;1.00;;;;;;;18.81;57.59;99807.44;4486317;32;33891;-73
2022/07/10 02:29:02;;;;;;;1.15;1.00;;;;;;;19.04;56.83;99800.16;4485918;32;33408;-72
2022/07/10 02:31:29;;;;;;;1.95;1.10;;;;;;;19.25;56.21;99808.81;4486162;32;33743;-81
2022/07/10 02:33:57;;;;;;;0.90;0.90;;;;;;;19.12;56.72;99806.88;4486247;32;34298;-76
2022/07/10 02:36:24;;;;;;;1.73;1.10;;;;;;;19.03;56.90;99804.84;4486056;32;33900;-71
2022/07/10 02:38:52;;;;;;;1.15;1.00;;;;;;;19.12;56.64;99802.19;4486292;32;34001;-77
2022/07/10 02:41:20;;;;;;;1.30;1.20;;;;;;;19.09;57.17;99793.72;4486109;32;34801;-82
2022/07/10 02:43:47;;;;;;;1.37;1.17;;;;;;;19.02;57.10;99799.62;4485673;32;34330;-80
2022/07/10 02:46:15;;;;;;;2.12;1.10;;;;;;;18.68;58.33;99802.69;4486219;32;34591;-72
2022/07/10 02:48:42;;;;;;;1.55;1.00;;;;;;;18.31;59.42;99799.72;4486362;32;33404;-80
2022/07/10 02:51:10;;;;;;;3.75;1.02;;;;;;;18.25;59.83;99792.69;4485956;32;34917;-80
2022/07/10 02:53:37;;;;;;;1.40;1.10;;;;;;;18.36;59.60;99788.66;4486048;32;34243;-82
2022/07/10 02:56:05;;;;;;;1.50;1.20;;;;;;;18.49;59.34;99800.81;4486333;32;33965;-80
2022/07/10 02:58:33;;;;;;;1.27;1.10;;;;;;;18.60;58.95;99796.78;4485258;32;33372;-82
2022/07/10 03:01:01;;;;;;;1.67;1.40;;;;;;;18.81;58.25;99794.53;4486133;32;34736;-80
2022/07/10 03:03:28;;;;;;;1.17;1.00;;;;;;;18.72;58.35;99796.28;4486010;32;34154;-72
2022/07/10 03:05:56;;;;;;;1.48;1.10;;;;;;;18.61;58.79;99798.41;4485768;32;34682;-72
2022/07/10 03:08:23;;;;;;;1.40;1.20;;;;;;;18.55;58.90;99794.13;4486128;32;33418;-71
2022/07/10 03:10:51;;;;;;;2.22;1.25;;;;;;;18.75;58.54;99797.63;4484712;32;33109;-81
2022/07/10 03:13:18;;;;;;;1.10;1.00;;;;;;;18.77;58.53;99795.41;4485413;32;34203;-72
2022/07/10 03:15:46;;;;;;;1.80;1.30;;;;;;;18.55;59.14;99791.38;4485737;32;33673;-72
2022/07/10 03:18:13;;;;;;;1.37;1.12;;;;;;;18.73;58.79;99792.44;4486082;32;34155;-72
2022/07/10 03:20:41;;;;;;;2.22;1.40;;;;;;;18.89;58.32;99787.50;4485683;32;34766;-81
2022/07/10 03:23:09;;;;;;;1.90;1.40;;;;;;;19.09;57.35;99785.47;4485998;32;34149;-81
2022/07/10 03:25:36;;;;;;;1.30;1.17;;;;;;;19.49;56.29;99778.34;4485933;32;33804;-72
2022/07/10 03:28:03;;;;;;;1.55;1.05;;;;;;;19.55;56.17;99781.81;4485509;32;33111;-78
2022/07/10 03:30:31;;;;;;;2.15;1.80;;;;;;;19.20;57.00;99779.50;4484489;32;34974;-72
2022/07/10 03:32:59;;;;;;;1.48;1.10;;;;;;;19.24;57.27;99779.69;4485879;32;34213;-72
2022/07/10 03:35:26;;;;;;;1.10;1.00;;;;;;;19.77;56.04;99778.34;4485685;32;34388;-71
2022/07/10 03:37:54;;;;;;;1.20;1.00;;;;;;;19.55;56.65;99759.81;4485921;32;33356;-71
2022/07/10 03:40:21;;;;;;;1.33;1.10;;;;;;;19.70;56.08;99764.16;4484507;32;32483;-71
2022/07/10 03:42:48;;;;;;;1.23;1.12;;;;;;;20.47;53.82;99765.91;4485039;32;35274;-83
2022/07/10 03:45:16;;;;;;;1.08;1.00;;;;;;;20.28;54.01;99772.44;4485788;32;33875;-72
2022/07/10 03:47:44;;;;;;;1.30;1.20;;;;;;;20.75;52.61;99766.59;4485741;32;33513;-79
2022/07/10 03:50:11;;;;;;;1.62;1.10;;;;;;;20.51;53.68;99760.59;4485673;32;33560;-85
2022/07/10 03:52:39;;;;;;;1.10;1.00;;;;;;;19.66;56.41;99767.50;4484531;32;34326;-73
2022/07/10 03:55:07;;;;;;;1.40;1.27;;;;;;;20.20;54.72;99770.44;4485541;32;33904;-74
2022/07/10 04:00:37;;;;;;;1.58;1.25;;;;;;;20.85;53.13;99771.84;4450529;31;33915;-75
2022/07/10 04:03:06;;;;;;;1.10;1.00;;;;;;;21.24;52.12;99763.88;4483843;32;34163;-74
2022/07/10 04:05:35;;;;;;;1.10;1.00;;;;;;;20.90;52.85;99763.41;4485062;32;34646;-73
2022/07/10 04:08:04;;;;;;;1.25;1.00;;;;;;;20.94;52.73;99760.03;4484008;32;33204;-74
2022/07/10 04:10:32;;;;;;;1.08;0.98;;;;;;;21.00;52.89;99756.81;4484637;32;34808;-73
2022/07/10 04:13:00;;;;;;;1.35;1.10;;;;;;;20.91;52.94;99755.97;4470588;32;34931;-76
2022/07/10 04:15:27;;;;;;;1.50;1.20;;;;;;;21.03;52.84;99758.13;4468622;32;33758;-69
2022/07/10 04:17:55;;;;;;;1.50;1.40;;;;;;;20.75;53.58;99755.56;4476898;32;33266;-74
2022/07/10 04:20:23;;;;;;;1.25;1.15;;;;;;;21.19;51.94;99755.78;4484862;32;33931;-71
2022/07/10 04:22:51;;;;;;;1.20;1.08;;;;;;;21.62;50.77;99753.12;4477461;32;34566;-71
2022/07/10 04:25:18;;;;;;;1.10;1.00;;;;;;;21.42;51.92;99749.03;4474661;32;34271;-72
2022/07/10 04:27:47;;;;;;;1.20;1.10;;;;;;;21.29;52.28;99747.19;4472789;32;33344;-73
2022/07/10 04:30:14;;;;;;;1.40;1.00;;;;;;;21.40;51.85;99745.75;4474046;32;33820;-74
2022/07/10 04:32:42;;;;;;;2.50;1.05;;;;;;;21.45;51.58;99742.87;4474656;32;34350;-76
2022/07/10 04:35:09;;;;;;;1.20;0.95;;;;;;;21.52;51.79;99744.34;4467387;32;33174;-71
2022/07/10 04:37:37;;;;;;;2.42;1.30;;;;;;;21.65;51.38;99752.47;4485301;32;33539;-73
2022/07/10 04:40:05;;;;;;;1.55;1.15;;;;;;;22.18;49.49;99738.66;4485276;32;34735;-73
2022/07/10 04:42:33;;;;;;;1.45;1.10;;;;;;;21.60;50.65;99744.38;4483839;32;34272;-72
2022/07/10 04:45:02;;;;;;;1.02;0.90;;;;;;;20.98;53.04;99741.72;4485137;32;33698;-74
2022/07/10 04:47:29;;;;;;;1.33;1.23;;;;;;;21.59;51.61;99733.63;4484855;32;33728;-68
2022/07/10 04:49:57;;;;;;;1.30;1.15;;;;;;;21.73;51.37;99744.53;4485279;32;33549;-82
2022/07/10 04:52:24;;;;;;;2.47;1.40;;;;;;;21.92;51.55;99733.97;4475268;32;33945;-69
2022/07/10 04:54:52;;;;;;;1.70;1.23;;;;;;;22.65;49.25;99734.06;4484998;32;34021;-69
2022/07/10 04:57:19;;;;;;;2.28;1.10;;;;;;;21.99;50.40;99739.03;4477434;32;33473;-68
2022/07/10 04:59:47;;;;;;;1.12;1.00;;;;;;;22.73;49.02;99732.41;4469081;32;33507;-69
2022/07/10 05:02:14;;;;;;;1.77;1.15;;;;;;;22.47;49.49;99732.50;4475990;32;34278;-69
2022/07/10 05:04:42;;;;;;;1.58;1.08;;;;;;;22.56;49.42;99730.50;4484470;32;34611;-70
2022/07/10 05:07:10;;;;;;;2.35;1.40;;;;;;;23.28;46.97;99739.03;4484471;32;34212;-68
2022/07/10 05:09:37;;;;;;;2.10;1.40;;;;;;;22.32;48.38;99737.38;4484525;32;33979;-69
2022/07/10 05:12:05;;;;;;;1.20;1.10;;;;;;;22.52;48.34;99738.62;4484281;32;34373;-69
2022/07/10 05:14:33;;;;;;;1.92;1.27;;;;;;;21.86;50.42;99744.38;4484162;32;33999;-68
2022/07/10 05:17:01;;;;;;;1.35;1.10;;;;;;;22.28;50.30;99744.72;4484240;32;34257;-69
2022/07/10 05:19:28;;;;;;;1.30;1.10;;;;;;;22.42;49.13;99752.00;4484265;32;33963;-69
2022/07/10 05:21:57;;;;;;;1.50;1.10;;;;;;;22.25;48.98;99737.09;4484144;32;35160;-69
2022/07/10 05:24:24;;;;;;;0.88;0.85;;;;;;;22.84;48.15;99738.38;4483843;32;33703;-68
2022/07/10 05:26:52;;;;;;;1.40;1.10;;;;;;;22.85;48.26;99734.47;4483575;32;34430;-70
2022/07/10 05:29:19;;;;;;;1.45;1.27;;;;;;;22.66;49.13;99730.16;4484124;32;34410;-71
2022/07/10 05:31:47;;;;;;;1.55;1.30;;;;;;;22.65;47.94;99733.25;4484320;32;34558;-70
2022/07/10 05:34:14;;;;;;;1.95;1.40;;;;;;;23.25;47.48;99725.88;4484357;32;33864;-70
2022/07/10 05:36:42;;;;;;;1.73;1.20;;;;;;;23.03;48.07;99725.00;4484467;32;34173;-77
2022/07/10 05:39:10;;;;;;;1.77;1.35;;;;;;;23.81;45.85;99723.72;4485264;32;34749;-70
2022/07/10 05:41:37;;;;;;;1.10;1.00;;;;;;;23.75;45.07;99725.03;4485543;32;34043;-70
2022/07/10 05:44:05;;;;;;;1.35;1.25;;;;;;;23.40;46.46;99725.28;4486239;32;34477;-70
2022/07/10 05:46:32;;;;;;;1.50;1.20;;;;;;;23.70;45.45;99719.69;4486564;32;33380;-70
2022/07/10 05:49:01;;;;;;;1.77;1.30;;;;;;;23.10;46.19;99724.47;4486006;32;34830;-70
2022/07/10 05:51:28;;;;;;;2.10;1.30;;;;;;;22.65;47.84;99717.47;4483031;32;34152;-71
2022/07/10 05:54:02;;;;;;;2.00;1.40;;;;;;;22.08;49.13;99720.50;4485214;32;33722;-71
2022/07/10 05:56:30;;;;;;;1.45;1.17;;;;;;;22.86;46.98;99720.31;4485874;31;32955;-71
2022/07/10 05:58:57;;;;;;;1.30;1.20;;;;;;;23.04;48.53;99717.50;4486468;32;34795;-71
2022/07/10 06:01:28;;;;;;;1.50;1.20;;;;;;;23.47;46.11;99708.12;4486251;32;34264;-72
2022/07/10 06:03:56;;;;;;;1.83;1.50;;;;;;;23.24;46.86;99718.69;4478804;32;34846;-70
2022/07/10 06:06:23;;;;;;;1.12;1.02;;;;;;;22.26;48.85;99724.88;4469498;32;32648;-76
2022/07/10 06:08:51;;;;;;;1.50;1.25;;;;;;;22.21;48.74;99722.25;4469220;32;33944;-71
2022/07/10 06:11:18;;;;;;;1.30;1.20;;;;;;;21.68;50.01;99720.66;4472589;32;34995;-77
2022/07/10 06:13:46;;;;;;;1.15;1.05;;;;;;;22.35;49.04;99719.31;4485091;32;34730;-70
2022/07/10 06:16:13;;;;;;;1.40;1.20;;;;;;;23.02;47.86;99715.06;4484961;32;34133;-72
2022/07/10 06:18:41;;;;;;;1.48;1.27;;;;;;;23.60;46.04;99711.78;4484546;32;34732;-73
2022/07/10 06:21:09;;;;;;;1.20;1.10;;;;;;;23.06;47.57;99707.72;4484928;32;34988;-71
2022/07/10 06:23:37;;;;;;;1.42;1.25;;;;;;;23.16;46.22;99708.50;4484889;32;33971;-73
2022/07/10 06:26:04;;;;;;;1.42;1.20;;;;;;;23.52;45.96;99708.75;4484725;32;33388;-72
2022/07/10 06:28:34;;;;;;;1.52;1.27;;;;;;;24.27;44.21;99715.47;4478805;32;33252;-70
2022/07/10 06:31:02;;;;;;;1.92;1.30;;;;;;;24.10;44.02;99724.75;4454094;32;34325;-71
2022/07/10 06:33:32;;;;;;;1.75;1.20;;;;;;;24.79;42.75;99725.22;4479359;32;33615;-69
2022/07/10 06:35:59;;;;;;;2.00;1.27;;;;;;;25.17;42.08;99727.66;4484424;32;34800;-69
2022/07/10 06:38:27;;;;;;;1.30;1.20;;;;;;;25.20;41.46;99724.22;4484573;32;33967;-69
2022/07/10 06:40:54;;;;;;;1.77;1.17;;;;;;;24.99;41.95;99721.53;4484736;32;33879;-70
2022/07/10 06:43:22;;;;;;;1.45;1.20;;;;;;;24.79;42.26;99717.69;4484439;32;34231;-71
2022/07/10 06:45:49;;;;;;;1.35;1.10;;;;;;;24.91;41.97;99717.72;4484203;32;33469;-71
2022/07/10 06:48:17;;;;;;;1.30;1.20;;;;;;;25.62;39.29;99715.59;4483687;32;34094;-74
2022/07/10 06:50:44;;;;;;;1.85;1.25;;;;;;;24.81;41.94;99723.72;4484873;32;34077;-75
2022/07/10 06:53:12;;;;;;;2.35;1.10;;;;;;;24.91;41.20;99720.50;4483973;32;32948;-76
2022/07/10 06:55:39;;;;;;;1.58;1.30;;;;;;;24.80;41.86;99718.53;4483087;32;32453;-74
2022/07/10 06:58:07;;;;;;;2.08;1.30;;;;;;;23.88;43.64;99720.41;4484435;31;34870;-74
2022/07/10 07:00:34;;;;;;;1.33;1.17;;;;;;;22.92;45.17;99719.00;4484466;32;34468;-76
2022/07/10 07:03:02;;;;;;;0.90;0.90;;;;;;;24.53;42.63;99716.03;4481362;32;33519;-68
2022/07/10 07:05:30;;;;;;;1.62;1.17;;;;;;;24.35;42.20;99709.84;4484506;32;33399;-69
2022/07/10 07:07:57;;;;;;;1.75;1.30;;;;;;;24.94;41.65;99707.88;4484267;32;34177;-71
2022/07/10 07:10:25;;;;;;;0.95;0.80;;;;;;;24.74;41.63;99713.19;4484320;32;35167;-70
2022/07/10 07:12:52;;;;;;;1.52;1.10;;;;;;;24.29;43.04;99715.94;4484558;32;34648;-73
2022/07/10 07:15:23;;;;;;;1.05;0.95;;;;;;;24.79;41.24;99716.88;4483568;32;33828;-70
2022/07/10 07:17:56;;;;;;;1.45;1.20;;;;;;;24.85;40.19;99712.75;4484314;32;33607;-71
2022/07/10 07:23:12;;;;;;;1.27;1.05;;;;;;;24.75;40.02;99714.81;4484649;32;33904;-71
2022/07/10 07:25:41;;;;;;;1.48;1.00;;;;;;;24.96;39.83;99717.47;4483338;32;33440;-71
2022/07/10 07:28:12;;;;;;;0.73;0.73;;;;;;;25.77;37.90;99711.28;4484616;32;34142;-71
2022/07/10 07:30:39;;;;;;;0.80;0.75;;;;;;;26.53;37.94;99714.22;4484402;32;34174;-71
2022/07/10 07:33:07;;;;;;;1.12;0.95;;;;;;;26.49;36.06;99711.31;4483963;32;34647;-70
2022/07/10 07:35:34;;;;;;;1.48;1.00;;;;;;;25.80;37.12;99716.12;4483054;32;34257;-70
2022/07/10 07:38:03;;;;;;;1.20;1.08;;;;;;;25.56;37.40;99715.03;4484625;32;34859;-72
2022/07/10 07:40:30;;;;;;;1.42;0.90;;;;;;;25.01;36.65;99708.12;4482894;32;33916;-72
2022/07/10 07:42:58;;;;;;;0.80;0.80;;;;;;;24.04;37.50;99712.25;4484433;32;33923;-71
2022/07/10 07:45:26;;;;;;;1.00;0.90;;;;;;;24.02;39.07;99714.59;4483163;32;33313;-71
2022/07/10 07:47:59;;;;;;;1.17;0.80;;;;;;;24.36;39.98;99722.56;4482876;32;33908;-72
2022/07/10 07:50:32;;;;;;;1.30;0.85;;;;;;;24.87;39.48;99713.19;4484478;32;34999;-71
2022/07/10 07:53:00;;;;;;;0.93;0.80;;;;;;;24.83;38.96;99712.28;4483226;32;33666;-70
2022/07/10 07:55:29;;;;;;;0.90;0.90;;;;;;;25.11;39.49;99715.16;4482729;32;33039;-69
2022/07/10 07:57:57;;;;;;;1.02;0.90;;;;;;;24.95;38.84;99717.84;4476624;32;33933;-70
2022/07/10 08:00:26;;;;;;;1.08;0.90;;;;;;;25.14;38.55;99717.25;4466402;32;33152;-71
2022/07/10 08:02:55;;;;;;;0.75;0.73;;;;;;;25.64;36.82;99723.56;4468160;32;33886;-72
2022/07/10 08:05:25;;;;;;;0.80;0.80;;;;;;;25.16;36.20;99726.87;4468603;32;34259;-74
2022/07/10 08:07:55;;;;;;;0.80;0.80;;;;;;;24.62;37.15;99715.97;4467417;32;33963;-69
2022/07/10 08:10:26;;;;;;;1.17;1.08;;;;;;;25.26;37.43;99706.16;4478597;32;35115;-69
2022/07/10 08:12:54;;;;;;;2.35;1.00;;;;;;;25.42;37.39;99716.56;4484302;32;33700;-70
2022/07/10 08:15:22;;;;;;;1.08;0.98;;;;;;;25.51;37.75;99712.50;4482894;32;34108;-72
2022/07/10 08:17:51;;;;;;;1.00;0.80;;;;;;;25.84;35.19;99711.50;4483666;32;33973;-70
2022/07/10 08:20:20;;;;;;;2.10;1.00;;;;;;;25.58;35.22;99709.94;4482997;32;34254;-69
2022/07/10 08:22:48;;;;;;;0.62;0.62;;;;;;;25.71;35.09;99709.91;4484114;32;34202;-71
2022/07/10 08:25:22;;;;;;;;;;;;;;;25.97;35.36;99715.88;4483131;32;34226;-70
2022/07/10 08:27:49;;;;;;;2.33;1.10;;;;;;;25.18;36.52;99715.38;4484266;32;34274;-74
2022/07/10 08:30:17;;;;;;;1.02;0.90;;;;;;;25.02;36.17;99709.72;4482621;32;34070;-70
2022/07/10 08:32:45;;;;;;;1.30;1.00;;;;;;;25.84;35.48;99710.69;4482507;32;34563;-74
2022/07/10 08:35:13;;;;;;;1.23;0.88;;;;;;;26.07;35.45;99708.19;4469840;32;32699;-76
2022/07/10 08:37:42;;;;;;;1.10;1.00;;;;;;;24.96;36.47;99700.81;4482421;32;33940;-74
2022/07/10 08:40:13;;;;;;;0.98;0.95;;;;;;;25.06;36.86;99710.66;4483358;32;34275;-75
2022/07/10 08:42:41;;;;;;;1.27;1.02;;;;;;;25.08;38.63;99700.03;4482465;32;33399;-77
2022/07/10 08:45:09;;;;;;;1.10;1.00;;;;;;;25.63;37.04;99708.88;4482749;32;33385;-73
2022/07/10 08:47:38;;;;;;;0.98;0.88;;;;;;;25.85;34.60;99720.63;4481949;32;33980;-75
2022/07/10 08:50:24;;;;;;;1.37;1.05;;;;;;;25.59;34.98;99705.19;4483664;32;34202;-69
2022/07/10 08:52:55;;;;;;;1.12;0.98;;;;;;;25.24;36.48;99700.16;4462823;32;34445;-74
2022/07/10 08:55:26;;;;;;;1.17;0.90;;;;;;;25.90;33.86;99699.00;4469008;32;33220;-72
2022/07/10 08:57:55;;;;;;;1.00;0.88;;;;;;;25.49;33.92;99689.81;4465803;32;34742;-75
2022/07/10 09:00:24;;;;;;;0.90;0.75;;;;;;;25.21;34.69;99706.41;4469406;32;34240;-69
2022/07/10 09:02:53;;;;;;;0.80;0.80;;;;;;;25.38;34.70;99708.94;4468321;32;34017;-69
2022/07/10 09:05:21;;;;;;;0.77;0.68;;;;;;;25.89;33.61;99702.91;4469162;32;33547;-69
2022/07/10 09:07:49;;;;;;;0.80;0.80;;;;;;;25.94;33.75;99694.34;4467780;32;33818;-74
2022/07/10 09:10:19;;;;;;;1.37;0.80;;;;;;;25.30;34.01;99689.63;4484464;32;34238;-71
2022/07/10 09:13:03;;;;;;;0.70;0.70;;;;;;;26.06;33.30;99681.56;4485345;32;32398;-71
2022/07/10 09:15:34;;;;;;;0.70;0.70;;;;;;;25.79;32.86;99697.84;4472361;32;33440;-71
2022/07/10 09:18:05;;;;;;;1.00;0.80;;;;;;;26.11;32.08;99692.41;4485046;32;34026;-78
2022/07/10 09:20:35;;;;;;;0.77;0.77;;;;;;;26.35;31.86;99703.41;4484908;32;34696;-74
2022/07/10 09:23:25;;;;;;;1.60;0.90;;;;;;;26.06;32.53;99692.66;4486681;32;34621;-73
2022/07/10 09:25:53;;;;;;;1.10;0.77;;;;;;;25.66;32.90;99693.47;4470621;32;32155;-75
2022/07/10 09:28:22;;;;;;;1.05;0.82;;;;;;;25.82;33.24;99696.34;4469759;32;33589;-74
2022/07/10 09:30:49;;;;;;;0.60;0.60;;;;;;;25.98;31.97;99698.03;4469614;32;34424;-73
2022/07/10 09:33:29;;;;;;;0.95;0.90;;;;;;;26.23;31.61;99681.22;4456822;32;34546;-73
2022/07/10 09:36:10;;;;;;;0.60;0.60;;;;;;;26.39;32.02;99686.81;4457031;32;32748;-78
2022/07/10 09:38:43;;;;;;;0.68;0.68;;;;;;;26.09;31.83;99686.38;4470884;32;34715;-74
2022/07/10 09:41:14;;;;;;;0.77;0.77;;;;;;;25.21;32.65;99688.94;4469204;32;34321;-72
2022/07/10 09:43:50;;;;;;;0.80;0.80;;;;;;;25.09;33.71;99692.50;4470427;32;33923;-77
2022/07/10 09:46:21;;;;;;;0.80;0.80;;;;;;;25.45;36.19;99696.44;4469757;32;32966;-73
2022/07/10 09:49:09;;;;;;;0.70;0.70;;;;;;;25.48;35.07;99687.38;4470581;32;34052;-73
2022/07/10 09:51:39;;;;;;;0.75;0.75;;;;;;;25.88;33.96;99694.91;4470380;32;35083;-75
2022/07/10 09:54:14;;;;;;;1.08;0.80;;;;;;;26.18;33.02;99696.22;4470432;32;34451;-71
2022/07/10 09:56:47;;;;;;;1.15;0.90;;;;;;;25.96;32.51;99691.19;4469687;32;33438;-71
2022/07/10 09:59:19;;;;;;;0.75;0.75;;;;;;;25.90;33.37;99685.09;4470819;32;34521;-71
2022/07/10 10:01:48;;;;;;;0.90;0.80;;;;;;;25.56;33.42;99678.12;4470793;32;35013;-72
2022/07/10 10:04:18;;;;;;;1.10;1.00;;;;;;;25.61;33.72;99677.06;4470359;32;33926;-70
2022/07/10 10:06:51;;;;;;;0.77;0.77;;;;;;;26.13;33.39;99678.97;4469413;32;33438;-70
2022/07/10 10:09:38;;;;;;;1.03;0.90;;;;;;;26.61;31.48;99674.31;4469550;32;34024;-71
2022/07/10 10:12:32;;;;;;;0.70;0.70;;;;;;;26.32;32.76;99659.63;4469391;32;34324;-72
2022/07/10 10:15:00;;;;;;;0.60;0.60;;;;;;;25.95;32.73;99670.94;4469497;32;34623;-70
2022/07/10 10:17:28;;;;;;;0.70;0.70;;;;;;;26.47;31.35;99660.00;4469166;32;34275;-71
2022/07/10 10:22:42;;;;;;;0.62;0.62;;;;;;;25.70;31.93;99647.97;4484117;32;34288;-72
2022/07/10 10:25:09;;;;;;;0.80;0.80;;;;;;;25.73;32.12;99647.25;4484039;32;33686;-73
2022/07/10 10:27:37;;;;;;;0.95;0.70;;;;;;;26.10;31.27;99640.75;4484955;32;33405;-72
2022/07/10 10:30:05;;;;;;;0.70;0.70;;;;;;;26.50;31.56;99642.56;4483687;32;33860;-70
2022/07/10 10:32:34;;;;;;;0.70;0.70;;;;;;;26.20;31.49;99643.03;4484541;32;34735;-72
2022/07/10 10:35:03;;;;;;;1.92;0.75;;;;;;;26.67;31.28;99628.31;4484669;32;34600;-72
2022/07/10 10:37:40;;;;;;;0.90;0.80;;;;;;;26.64;30.57;99644.97;4483661;32;33273;-71
2022/07/10 10:40:10;;;;;;;1.48;0.80;;;;;;;26.84;29.78;99645.84;4483787;32;34083;-71
2022/07/10 10:42:43;;;;;;;1.15;0.73;;;;;;;26.96;29.54;99634.59;4484735;32;34315;-72
2022/07/10 10:45:27;;;;;;;0.80;0.80;;;;;;;27.11;30.72;99638.53;4484117;32;34649;-70
2022/07/10 10:48:08;;;;;;;0.75;0.60;;;;;;;27.15;29.87;99645.78;4484560;32;34276;-72
2022/07/10 10:50:59;;;;;;;1.17;0.70;;;;;;;26.83;31.01;99627.53;4484154;32;35289;-71
2022/07/10 10:53:28;;;;;;;0.65;0.65;;;;;;;26.05;32.07;99644.59;4484979;32;34178;-72
2022/07/10 10:56:02;;;;;;;0.75;0.75;;;;;;;26.26;32.17;99638.78;4483347;31;33953;-71
2022/07/10 10:58:41;;;;;;;0.80;0.80;;;;;;;26.15;33.87;99646.03;4484660;32;33179;-71
2022/07/10 11:01:25;;;;;;;0.50;0.50;;;;;;;26.55;32.28;99643.13;4484826;32;34171;-71
2022/07/10 11:04:14;;;;;;;0.70;0.70;;;;;;;26.43;31.91;99643.19;4484995;32;35034;-71
2022/07/10 11:06:47;;;;;;;0.93;0.80;;;;;;;26.54;30.13;99629.56;4484145;32;33955;-71
2022/07/10 11:09:27;;;;;;;0.70;0.70;;;;;;;26.49;30.38;99627.87;4483451;32;33536;-70
2022/07/10 11:12:03;;;;;;;0.80;0.80;;;;;;;26.64;31.61;99619.91;4485005;32;33997;-70
2022/07/10 11:14:33;;;;;;;0.70;0.70;;;;;;;26.87;30.78;99618.09;4484399;32;35039;-72
2022/07/10 11:17:00;;;;;;;0.80;0.80;;;;;;;26.67;29.56;99624.75;4484666;32;34137;-71
2022/07/10 11:19:30;;;;;;;0.70;0.70;;;;;;;27.00;29.55;99597.31;4484113;32;33489;-72
2022/07/10 11:22:13;;;;;;;0.80;0.80;;;;;;;27.18;28.45;99619.19;4484632;32;35391;-71
2022/07/10 11:25:18;;;;;;;0.98;0.70;;;;;;;27.29;29.01;99622.22;4484650;32;34986;-72
2022/07/10 11:27:58;;;;;;;;;;;;;;;26.48;30.09;99650.47;4484469;32;34015;-72
2022/07/10 11:30:25;;;;;;;0.93;0.80;;;;;;;26.48;30.80;99656.03;4484952;32;33039;-72
2022/07/10 11:32:53;;;;;;;1.08;0.88;;;;;;;26.21;30.76;99660.50;4484597;32;33607;-72
2022/07/10 11:35:21;;;;;;;0.62;0.62;;;;;;;25.67;31.33;99676.44;4482758;32;33755;-73
2022/07/10 11:37:50;;;;;;;0.60;0.60;;;;;;;25.66;30.99;99674.84;4484564;32;33810;-72
2022/07/10 11:40:22;;;;;;;0.60;0.60;;;;;;;25.71;30.09;99663.47;4484559;32;33916;-71
2022/07/10 11:42:49;;;;;;;0.90;0.70;;;;;;;24.48;32.57;99662.72;4484558;32;34758;-71
2022/07/10 11:45:29;;;;;;;0.70;0.70;;;;;;;24.55;32.72;99658.25;4484267;32;34004;-71
2022/07/10 11:47:57;;;;;;;1.15;0.80;;;;;;;23.68;34.45;99659.09;4483108;32;33962;-72
2022/07/10 11:50:25;;;;;;;1.40;0.93;;;;;;;24.24;34.52;99650.44;4482519;32;33525;-71
2022/07/10 11:52:54;;;;;;;0.80;0.80;;;;;;;24.46;35.06;99656.72;4483308;32;35023;-72
2022/07/10 11:55:22;;;;;;;0.82;0.82;;;;;;;24.22;35.92;99658.28;4483985;31;33967;-72